createdAt,value
2017-08-29T00:00:43.215Z,24.17
2017-08-29T00:03:09.649Z,24.26
2017-08-29T00:05:36.084Z,24.30
2017-08-29T00:08:03.332Z,24.31
2017-08-29T00:10:29.771Z,24.31
2017-08-29T00:12:56.164Z,24.24
2017-08-29T00:15:22.639Z,23.95
2017-08-29T00:17:49.078Z,24.23
2017-08-29T00:20:15.442Z,24.31
2017-08-29T00:22:41.969Z,24.33
2017-08-29T00:25:09.055Z,24.32
2017-08-29T00:27:35.537Z,24.34
2017-08-29T00:30:01.970Z,24.31
2017-08-29T00:32:28.406Z,24.28
2017-08-29T00:34:54.946Z,24.13
2017-08-29T00:37:21.398Z,24.21
2017-08-29T00:39:47.811Z,24.11
2017-08-29T00:42:15.066Z,24.13
2017-08-29T00:44:41.500Z,24.14
2017-08-29T00:47:07.936Z,24.15
2017-08-29T00:49:34.332Z,24.11
2017-08-29T00:52:00.800Z,24.04
2017-08-29T00:54:27.237Z,23.96
2017-08-29T00:56:53.675Z,23.92
2017-08-29T00:59:20.933Z,23.72
2017-08-29T01:01:47.364Z,23.85
2017-08-29T01:04:13.802Z,23.85
2017-08-29T01:06:40.216Z,23.84
2017-08-29T01:09:06.668Z,23.73
2017-08-29T01:11:33.064Z,23.74
2017-08-29T01:13:59.541Z,23.74
2017-08-29T01:16:26.690Z,23.83
2017-08-29T01:18:53.078Z,23.77
2017-08-29T01:21:19.512Z,23.77
2017-08-29T01:23:45.995Z,23.76
2017-08-29T01:26:12.532Z,23.81
2017-08-29T01:28:38.911Z,23.76
2017-08-29T01:31:05.402Z,23.73
2017-08-29T01:33:32.550Z,23.72
2017-08-29T01:35:58.988Z,23.83
2017-08-29T01:38:25.420Z,23.90
2017-08-29T01:40:51.862Z,23.89
2017-08-29T01:43:18.295Z,23.81
2017-08-29T01:45:44.728Z,23.84
2017-08-29T01:48:11.165Z,23.85
2017-08-29T01:50:38.315Z,23.84
2017-08-29T01:53:04.852Z,23.87
2017-08-29T01:55:31.287Z,23.91
2017-08-29T01:57:57.722Z,23.88
2017-08-29T02:00:24.157Z,23.84
2017-08-29T02:02:50.599Z,23.76
2017-08-29T02:05:17.027Z,23.63
2017-08-29T02:07:44.178Z,23.52
2017-08-29T02:10:10.614Z,23.55
2017-08-29T02:12:37.052Z,23.55
2017-08-29T02:15:03.485Z,23.61
2017-08-29T02:17:29.919Z,23.71
2017-08-29T02:19:56.357Z,23.67
2017-08-29T02:22:22.790Z,23.70
2017-08-29T02:24:50.042Z,23.55
2017-08-29T02:27:16.477Z,23.41
2017-08-29T02:29:42.911Z,23.33
2017-08-29T02:32:09.347Z,23.33
2017-08-29T02:34:35.783Z,23.38
2017-08-29T02:37:02.216Z,23.36
2017-08-29T02:39:28.654Z,23.46
2017-08-29T02:41:55.804Z,23.40
2017-08-29T02:44:22.202Z,23.32
2017-08-29T02:46:48.571Z,23.20
2017-08-29T02:49:15.005Z,23.21
2017-08-29T02:51:41.419Z,23.18
2017-08-29T02:54:07.864Z,23.06
2017-08-29T02:56:34.306Z,23.03
2017-08-29T02:59:01.568Z,22.99
2017-08-29T03:01:27.999Z,23.06
2017-08-29T03:03:54.398Z,23.18
2017-08-29T03:06:20.765Z,23.25
2017-08-29T03:08:47.202Z,23.12
2017-08-29T03:11:13.637Z,22.99
2017-08-29T03:13:40.072Z,22.98
2017-08-29T03:16:07.326Z,22.87
2017-08-29T03:18:33.758Z,22.96
2017-08-29T03:21:00.215Z,23.00
2017-08-29T03:23:26.631Z,23.00
2017-08-29T03:25:53.088Z,22.95
2017-08-29T03:28:19.588Z,22.97
2017-08-29T03:30:46.031Z,23.00
2017-08-29T03:33:13.191Z,23.02
2017-08-29T03:35:39.726Z,23.02
2017-08-29T03:38:06.264Z,23.03
2017-08-29T03:40:32.702Z,23.04
2017-08-29T03:42:59.088Z,22.91
2017-08-29T03:45:25.528Z,22.94
2017-08-29T03:47:52.004Z,22.93
2017-08-29T03:50:19.141Z,22.59
2017-08-29T03:52:45.589Z,22.71
2017-08-29T03:55:12.005Z,22.59
2017-08-29T03:57:38.463Z,22.65
2017-08-29T04:00:04.919Z,22.73
2017-08-29T04:02:31.332Z,22.72
2017-08-29T04:04:57.768Z,22.77
2017-08-29T04:10:21.702Z,22.84
2017-08-29T04:12:48.179Z,22.87
2017-08-29T04:15:14.634Z,22.89
2017-08-29T04:17:41.039Z,22.93
2017-08-29T04:20:07.525Z,22.92
2017-08-29T04:22:33.940Z,22.92
2017-08-29T04:25:00.373Z,22.88
2017-08-29T04:27:26.807Z,22.86
2017-08-29T04:29:53.242Z,22.82
2017-08-29T04:32:19.679Z,22.73
2017-08-29T04:34:46.113Z,22.75
2017-08-29T04:37:12.548Z,22.71
2017-08-29T04:39:38.982Z,22.81
2017-08-29T04:42:05.418Z,22.92
2017-08-29T04:44:31.855Z,22.88
2017-08-29T04:46:58.290Z,22.79
2017-08-29T04:49:24.742Z,22.73
2017-08-29T04:51:51.107Z,22.75
2017-08-29T04:54:17.489Z,22.63
2017-08-29T04:56:43.924Z,22.42
2017-08-29T04:59:10.359Z,22.30
2017-08-29T05:01:36.798Z,22.09
2017-08-29T05:04:03.231Z,21.80
2017-08-29T05:06:29.667Z,21.74
2017-08-29T05:08:56.102Z,21.64
2017-08-29T05:11:22.535Z,21.54
2017-08-29T05:13:48.971Z,21.49
2017-08-29T05:16:15.405Z,21.46
2017-08-29T05:18:41.840Z,21.51
2017-08-29T05:21:08.274Z,21.48
2017-08-29T05:23:34.708Z,21.57
2017-08-29T05:26:01.096Z,21.61
2017-08-29T05:28:27.531Z,21.52
2017-08-29T05:30:53.998Z,21.56
2017-08-29T05:33:20.551Z,21.65
2017-08-29T05:35:46.915Z,21.79
2017-08-29T05:38:13.318Z,21.75
2017-08-29T05:40:40.571Z,21.61
2017-08-29T05:43:07.014Z,21.54
2017-08-29T05:45:33.648Z,21.48
2017-08-29T05:48:00.084Z,21.57
2017-08-29T05:50:26.622Z,21.48
2017-08-29T05:52:53.566Z,21.29
2017-08-29T05:55:20.001Z,21.45
2017-08-29T05:57:46.713Z,21.35
2017-08-29T06:00:13.486Z,21.21
2017-08-29T06:02:39.920Z,21.16
2017-08-29T06:05:06.459Z,21.08
2017-08-29T06:07:33.199Z,21.10
2017-08-29T06:09:59.636Z,21.20
2017-08-29T06:12:26.174Z,21.22
2017-08-29T06:14:52.812Z,21.16
2017-08-29T06:17:19.247Z,21.04
2017-08-29T06:19:45.684Z,21.12
2017-08-29T06:24:44.761Z,21.11
2017-08-29T06:27:11.234Z,20.88
2017-08-29T06:29:38.079Z,20.95
2017-08-29T06:32:04.512Z,20.95
2017-08-29T06:34:30.966Z,21.00
2017-08-29T06:36:57.690Z,20.83
2017-08-29T06:39:24.123Z,20.86
2017-08-29T06:41:50.561Z,20.77
2017-08-29T06:44:17.399Z,20.86
2017-08-29T06:46:43.837Z,20.82
2017-08-29T06:49:10.270Z,20.65
2017-08-29T06:51:37.016Z,20.44
2017-08-29T06:54:03.450Z,20.29
2017-08-29T06:56:30.009Z,20.36
2017-08-29T06:58:56.525Z,20.34
2017-08-29T07:01:23.080Z,20.24
2017-08-29T07:03:49.496Z,20.24
2017-08-29T07:06:15.935Z,20.26
2017-08-29T07:08:42.673Z,20.29
2017-08-29T07:11:09.069Z,20.26
2017-08-29T07:13:35.546Z,20.24
2017-08-29T07:16:02.081Z,20.31
2017-08-29T07:18:29.031Z,20.46
2017-08-29T07:20:55.463Z,20.69
2017-08-29T07:23:22.002Z,20.60
2017-08-29T07:25:48.435Z,20.63
2017-08-29T07:28:14.835Z,20.60
2017-08-29T07:30:41.407Z,20.52
2017-08-29T07:33:07.845Z,20.30
2017-08-29T07:35:34.726Z,21.62
2017-08-29T07:38:01.276Z,22.57
2017-08-29T07:40:27.804Z,23.68
2017-08-29T07:42:54.710Z,24.73
2017-08-29T07:45:21.339Z,25.29
2017-08-29T07:47:47.802Z,25.80
2017-08-29T07:50:14.734Z,26.01
2017-08-29T07:52:41.266Z,25.78
2017-08-29T07:55:07.803Z,25.98
2017-08-29T07:57:35.701Z,25.33
2017-08-29T08:00:02.313Z,24.53
2017-08-29T08:02:29.669Z,23.85
2017-08-29T08:04:57.640Z,23.38
2017-08-29T08:07:24.271Z,22.98
2017-08-29T08:09:50.713Z,22.64
2017-08-29T08:12:17.251Z,22.29
2017-08-29T08:14:43.687Z,22.25
2017-08-29T08:17:10.225Z,22.08
2017-08-29T08:19:36.863Z,21.88
2017-08-29T08:22:03.259Z,21.68
2017-08-29T08:24:29.688Z,21.50
2017-08-29T08:26:56.524Z,21.47
2017-08-29T08:29:22.956Z,21.53
2017-08-29T08:31:49.404Z,21.60
2017-08-29T08:34:16.087Z,21.60
2017-08-29T08:36:42.632Z,21.63
2017-08-29T08:39:09.014Z,21.62
2017-08-29T08:41:35.596Z,21.58
2017-08-29T08:44:02.135Z,21.52
2017-08-29T08:46:28.672Z,21.39
2017-08-29T08:48:55.720Z,21.27
2017-08-29T08:51:22.109Z,21.24
2017-08-29T08:53:48.583Z,21.34
2017-08-29T08:56:15.435Z,21.40
2017-08-29T08:58:41.839Z,21.48
2017-08-29T09:01:08.309Z,21.62
2017-08-29T09:03:35.559Z,21.79
2017-08-29T09:06:02.097Z,21.73
2017-08-29T09:08:28.633Z,21.82
2017-08-29T09:10:55.477Z,22.21
2017-08-29T09:13:21.931Z,22.46
2017-08-29T09:15:48.456Z,22.66
2017-08-29T09:18:15.501Z,22.76
2017-08-29T09:20:42.244Z,22.71
2017-08-29T09:23:08.677Z,22.66
2017-08-29T09:25:35.522Z,22.59
2017-08-29T09:28:02.558Z,22.63
2017-08-29T09:30:29.005Z,22.61
2017-08-29T09:32:56.190Z,22.68
2017-08-29T09:35:23.002Z,22.64
2017-08-29T09:37:49.546Z,22.41
2017-08-29T09:40:17.575Z,22.52
2017-08-29T09:42:44.437Z,22.72
2017-08-29T09:45:11.079Z,22.95
2017-08-29T09:47:37.830Z,23.02
2017-08-29T09:50:04.484Z,22.82
2017-08-29T09:52:31.325Z,22.72
2017-08-29T09:54:58.065Z,22.57
2017-08-29T09:57:24.858Z,22.36
2017-08-29T09:59:51.652Z,22.12
2017-08-29T10:02:18.434Z,22.08
2017-08-29T10:04:45.314Z,22.02
2017-08-29T10:07:14.039Z,22.18
2017-08-29T10:09:41.698Z,22.24
2017-08-29T10:12:08.229Z,22.26
2017-08-29T10:14:36.291Z,22.39
2017-08-29T10:17:03.211Z,22.48
2017-08-29T10:19:29.890Z,22.60
2017-08-29T10:21:56.796Z,22.55
2017-08-29T10:24:23.963Z,22.19
2017-08-29T10:26:50.612Z,22.11
2017-08-29T10:29:17.984Z,22.11
2017-08-29T10:31:44.648Z,22.30
2017-08-29T10:34:11.365Z,22.31
2017-08-29T10:36:38.418Z,22.13
2017-08-29T10:39:05.361Z,22.05
2017-08-29T10:41:31.793Z,22.02
2017-08-29T10:43:58.234Z,21.91
2017-08-29T10:46:25.054Z,22.04
2017-08-29T10:48:51.513Z,22.19
2017-08-29T10:51:18.253Z,22.25
2017-08-29T10:53:45.459Z,22.20
2017-08-29T10:56:12.151Z,22.06
2017-08-29T10:58:38.663Z,22.08
2017-08-29T11:01:05.482Z,22.09
2017-08-29T11:03:31.921Z,22.25
2017-08-29T11:05:58.410Z,22.39
2017-08-29T11:08:25.145Z,22.30
2017-08-29T11:10:51.558Z,22.54
2017-08-29T11:13:17.924Z,22.66
2017-08-29T11:15:44.448Z,22.81
2017-08-29T11:18:10.995Z,22.77
2017-08-29T11:20:38.034Z,22.69
2017-08-29T11:23:05.862Z,22.88
2017-08-29T11:25:32.531Z,23.50
2017-08-29T11:27:59.234Z,23.96
2017-08-29T11:30:26.747Z,24.22
2017-08-29T11:32:53.793Z,24.24
2017-08-29T11:35:20.437Z,24.13
2017-08-29T11:37:47.581Z,24.04
2017-08-29T11:40:14.284Z,23.87
2017-08-29T11:42:40.764Z,23.61
2017-08-29T11:45:08.527Z,23.59
2017-08-29T11:47:35.173Z,23.60
2017-08-29T11:50:02.226Z,23.61
2017-08-29T11:52:28.987Z,23.53
2017-08-29T11:54:55.593Z,23.50
2017-08-29T11:57:22.133Z,23.53
2017-08-29T11:59:48.977Z,23.43
2017-08-29T12:02:15.412Z,23.47
2017-08-29T12:04:41.849Z,23.46
2017-08-29T12:07:08.590Z,23.44
2017-08-29T12:09:35.128Z,23.33
2017-08-29T12:12:01.871Z,23.16
2017-08-29T12:14:28.610Z,23.18
2017-08-29T12:16:55.099Z,23.27
2017-08-29T12:19:21.536Z,23.39
2017-08-29T12:21:48.843Z,23.42
2017-08-29T12:24:15.497Z,23.41
2017-08-29T12:26:42.015Z,23.30
2017-08-29T12:29:08.681Z,23.31
2017-08-29T12:31:35.184Z,23.27
2017-08-29T12:34:01.581Z,23.24
2017-08-29T12:36:28.268Z,23.26
2017-08-29T12:38:54.804Z,23.18
2017-08-29T12:41:21.340Z,23.06
2017-08-29T12:43:48.297Z,23.09
2017-08-29T12:46:15.035Z,22.99
2017-08-29T12:48:41.578Z,22.83
2017-08-29T12:51:08.615Z,22.88
2017-08-29T12:53:35.464Z,22.72
2017-08-29T12:56:02.092Z,22.65
2017-08-29T12:58:29.354Z,22.54
2017-08-29T13:00:55.789Z,22.44
2017-08-29T13:03:22.316Z,22.49
2017-08-29T13:05:49.225Z,22.66
2017-08-29T13:08:15.606Z,22.77
2017-08-29T13:10:42.014Z,22.81
2017-08-29T13:13:08.781Z,22.86
2017-08-29T13:15:35.322Z,22.95
2017-08-29T13:18:01.960Z,22.94
2017-08-29T13:20:28.909Z,22.83
2017-08-29T13:22:55.752Z,22.72
2017-08-29T13:25:22.289Z,22.65
2017-08-29T13:27:49.031Z,22.74
2017-08-29T13:30:15.466Z,22.53
2017-08-29T13:32:41.901Z,22.63
2017-08-29T13:35:08.440Z,22.66
2017-08-29T13:37:35.245Z,22.64
2017-08-29T13:40:01.720Z,22.59
2017-08-29T13:42:28.152Z,22.49
2017-08-29T13:44:54.844Z,22.66
2017-08-29T13:47:21.432Z,22.79
2017-08-29T13:49:47.871Z,22.69
2017-08-29T13:52:15.419Z,22.74
2017-08-29T13:54:44.937Z,22.56
2017-08-29T13:57:11.985Z,22.58
2017-08-29T13:59:38.728Z,22.25
2017-08-29T14:02:05.880Z,22.18
2017-08-29T14:04:32.508Z,22.08
2017-08-29T14:06:59.158Z,22.08
2017-08-29T14:09:26.002Z,22.12
2017-08-29T14:11:52.494Z,22.10
2017-08-29T14:14:19.694Z,22.11
2017-08-29T14:16:46.458Z,22.12
2017-08-29T14:19:12.868Z,22.23
2017-08-29T14:21:40.147Z,22.28
2017-08-29T14:24:06.865Z,22.35
2017-08-29T14:26:33.506Z,22.40
2017-08-29T14:29:00.144Z,22.52
2017-08-29T14:31:26.904Z,22.42
2017-08-29T14:33:53.423Z,22.59
2017-08-29T14:36:20.064Z,22.49
2017-08-29T14:38:46.801Z,22.48
2017-08-29T14:41:13.307Z,22.52
2017-08-29T14:43:39.982Z,22.54
2017-08-29T14:46:06.829Z,22.56
2017-08-29T14:48:34.493Z,22.49
2017-08-29T14:51:02.729Z,22.47
2017-08-29T14:53:29.156Z,22.50
2017-08-29T14:55:55.589Z,22.42
2017-08-29T14:58:22.278Z,22.46
2017-08-29T15:00:48.714Z,22.55
2017-08-29T15:03:15.148Z,22.65
2017-08-29T15:05:42.065Z,22.61
2017-08-29T15:08:08.519Z,22.68
2017-08-29T15:10:34.962Z,22.83
2017-08-29T15:13:03.181Z,22.85
2017-08-29T15:15:30.097Z,22.87
2017-08-29T15:17:57.093Z,22.77
2017-08-29T15:20:23.860Z,22.61
2017-08-29T15:22:50.416Z,22.59
2017-08-29T15:25:16.872Z,22.66
2017-08-29T15:27:43.797Z,22.76
2017-08-29T15:30:10.232Z,22.72
2017-08-29T15:32:36.668Z,22.80
2017-08-29T15:35:03.443Z,22.70
2017-08-29T15:37:29.947Z,22.87
2017-08-29T15:39:56.379Z,22.81
2017-08-29T15:42:22.814Z,22.76
2017-08-29T15:44:49.460Z,22.64
2017-08-29T15:47:15.995Z,22.65
2017-08-29T15:49:42.531Z,22.59
2017-08-29T15:52:08.966Z,22.51
2017-08-29T15:54:35.401Z,22.32
2017-08-29T15:57:01.825Z,22.29
2017-08-29T15:59:28.375Z,22.17
2017-08-29T16:01:54.809Z,22.24
2017-08-29T16:04:21.242Z,22.28
2017-08-29T16:06:47.677Z,22.25
2017-08-29T16:09:14.113Z,22.16
2017-08-29T16:11:40.547Z,22.12
2017-08-29T16:14:06.984Z,22.05
2017-08-29T16:16:33.439Z,22.05
2017-08-29T16:18:59.853Z,22.15
2017-08-29T16:21:26.219Z,22.25
2017-08-29T16:23:52.620Z,22.22
2017-08-29T16:26:19.055Z,22.19
2017-08-29T16:28:45.488Z,22.19
2017-08-29T16:31:11.924Z,22.18
2017-08-29T16:33:38.311Z,22.26
2017-08-29T16:36:04.792Z,22.22
2017-08-29T16:38:31.228Z,22.18
2017-08-29T16:40:57.664Z,22.09
2017-08-29T16:43:24.098Z,22.07
2017-08-29T16:45:50.533Z,22.03
2017-08-29T16:48:16.972Z,21.92
2017-08-29T16:50:43.404Z,21.86
2017-08-29T16:53:10.555Z,21.81
2017-08-29T16:55:36.990Z,21.83
2017-08-29T16:58:03.424Z,21.78
2017-08-29T17:00:29.862Z,21.58
2017-08-29T17:02:56.295Z,21.75
2017-08-29T17:05:22.783Z,21.73
2017-08-29T17:07:49.169Z,21.73
2017-08-29T17:10:16.382Z,21.68
2017-08-29T17:12:42.853Z,21.79
2017-08-29T17:15:09.288Z,21.76
2017-08-29T17:17:35.723Z,21.73
2017-08-29T17:20:02.159Z,21.71
2017-08-29T17:22:28.594Z,21.68
2017-08-29T17:24:55.112Z,21.66
2017-08-29T17:27:22.232Z,21.60
2017-08-29T17:29:48.718Z,21.55
2017-08-29T17:32:15.152Z,21.57
2017-08-29T17:34:41.583Z,21.54
2017-08-29T17:37:08.021Z,21.50
2017-08-29T17:39:34.559Z,21.53
2017-08-29T17:42:00.993Z,21.50
2017-08-29T17:44:28.145Z,21.49
2017-08-29T17:46:54.500Z,21.50
2017-08-29T17:49:20.864Z,21.52
2017-08-29T17:51:47.291Z,21.48
2017-08-29T17:54:13.769Z,21.39
2017-08-29T17:56:40.217Z,21.39
2017-08-29T17:59:06.609Z,21.39
2017-08-29T18:01:33.811Z,21.38
2017-08-29T18:04:00.239Z,21.25
2017-08-29T18:06:26.674Z,21.38
2017-08-29T18:08:53.111Z,21.37
2017-08-29T18:11:19.547Z,21.33
2017-08-29T18:13:45.979Z,21.09
2017-08-29T18:16:12.373Z,21.17
2017-08-29T18:18:39.564Z,21.20
2017-08-29T18:21:06.000Z,21.17
2017-08-29T18:23:32.542Z,21.11
2017-08-29T18:25:58.925Z,21.06
2017-08-29T18:28:25.357Z,21.05
2017-08-29T18:30:51.792Z,21.12
2017-08-29T18:33:18.276Z,21.15
2017-08-29T18:35:45.428Z,21.08
2017-08-29T18:38:11.864Z,21.14
2017-08-29T18:40:38.298Z,21.24
2017-08-29T18:43:04.733Z,21.24
2017-08-29T18:45:31.121Z,21.14
2017-08-29T18:47:57.604Z,20.89
2017-08-29T18:50:24.143Z,20.83
2017-08-29T18:52:51.187Z,21.00
2017-08-29T18:55:17.577Z,20.96
2017-08-29T18:57:44.059Z,20.93
2017-08-29T19:00:10.600Z,20.79
2017-08-29T19:02:37.031Z,20.70
2017-08-29T19:05:03.467Z,20.61
2017-08-29T19:07:29.902Z,20.48
2017-08-29T19:09:57.058Z,20.58
2017-08-29T19:12:23.489Z,20.69
2017-08-29T19:14:49.925Z,20.72
2017-08-29T19:17:16.423Z,20.54
2017-08-29T19:19:42.895Z,20.33
2017-08-29T19:22:09.332Z,20.36
2017-08-29T19:24:35.764Z,20.46
2017-08-29T19:27:02.971Z,20.43
2017-08-29T19:29:29.456Z,20.23
2017-08-29T19:31:55.917Z,20.20
2017-08-29T19:34:22.429Z,20.17
2017-08-29T19:36:48.864Z,19.96
2017-08-29T19:39:15.297Z,19.99
2017-08-29T19:41:41.730Z,19.94
2017-08-29T19:44:08.984Z,19.92
2017-08-29T19:46:35.383Z,19.90
2017-08-29T19:49:01.854Z,19.92
2017-08-29T19:51:28.291Z,20.04
2017-08-29T19:53:54.724Z,20.02
2017-08-29T19:56:21.113Z,20.18
2017-08-29T19:58:47.597Z,20.23
2017-08-29T20:01:14.746Z,20.25
2017-08-29T20:03:41.132Z,20.23
2017-08-29T20:06:07.602Z,20.13
2017-08-29T20:08:34.049Z,20.13
2017-08-29T20:11:00.486Z,20.11
2017-08-29T20:13:26.922Z,20.05
2017-08-29T20:15:53.356Z,20.00
2017-08-29T20:18:20.612Z,19.94
2017-08-29T20:20:47.011Z,19.75
2017-08-29T20:23:13.478Z,19.66
2017-08-29T20:25:39.917Z,19.73
2017-08-29T20:28:06.370Z,19.75
2017-08-29T20:30:32.793Z,19.74
2017-08-29T20:32:59.220Z,19.73
2017-08-29T20:35:26.474Z,19.68
2017-08-29T20:37:52.909Z,19.60
2017-08-29T20:40:19.343Z,19.40
2017-08-29T20:42:45.778Z,19.29
2017-08-29T20:45:12.213Z,19.00
2017-08-29T20:47:38.647Z,19.12
2017-08-29T20:50:05.136Z,19.13
2017-08-29T20:52:31.621Z,19.12
2017-08-29T20:54:58.057Z,19.20
2017-08-29T20:57:24.572Z,19.27
2017-08-29T20:59:51.029Z,19.20
2017-08-29T21:02:17.463Z,19.18
2017-08-29T21:04:43.904Z,19.22
2017-08-29T21:07:10.320Z,19.24
2017-08-29T21:09:37.487Z,19.04
2017-08-29T21:12:03.918Z,18.78
2017-08-29T21:14:30.356Z,18.58
2017-08-29T21:16:56.809Z,18.66
2017-08-29T21:19:23.305Z,18.85
2017-08-29T21:21:49.761Z,18.80
2017-08-29T21:24:16.251Z,19.04
2017-08-29T21:26:43.448Z,19.05
2017-08-29T21:29:09.884Z,19.04
2017-08-29T21:31:36.320Z,18.97
2017-08-29T21:34:02.737Z,18.97
2017-08-29T21:36:29.139Z,18.95
2017-08-29T21:38:55.622Z,18.86
2017-08-29T21:41:22.058Z,18.83
2017-08-29T21:43:49.264Z,18.80
2017-08-29T21:46:15.747Z,18.61
2017-08-29T21:48:42.182Z,18.73
2017-08-29T21:51:08.617Z,18.52
2017-08-29T21:53:35.720Z,18.52
2017-08-29T21:56:02.206Z,18.52
2017-08-29T21:58:28.639Z,18.49
2017-08-29T22:00:55.073Z,18.45
2017-08-29T22:03:21.513Z,18.44
2017-08-29T22:05:47.945Z,18.46
2017-08-29T22:08:14.378Z,18.45
2017-08-29T22:10:40.813Z,18.42
2017-08-29T22:13:07.248Z,18.39
2017-08-29T22:15:33.682Z,18.33
2017-08-29T22:18:00.120Z,18.28
2017-08-29T22:20:26.555Z,18.24
2017-08-29T22:22:52.987Z,18.19
2017-08-29T22:25:20.241Z,18.12
2017-08-29T22:27:46.678Z,18.14
2017-08-29T22:30:13.112Z,18.05
2017-08-29T22:32:39.551Z,18.15
2017-08-29T22:35:05.981Z,18.19
2017-08-29T22:37:32.417Z,18.17
2017-08-29T22:39:58.849Z,18.06
2017-08-29T22:42:26.004Z,17.93
2017-08-29T22:44:52.460Z,17.83
2017-08-29T22:47:18.962Z,17.72
2017-08-29T22:49:45.405Z,17.88
2017-08-29T22:52:11.846Z,17.99
2017-08-29T22:54:38.264Z,18.03
2017-08-29T22:57:04.719Z,18.05
2017-08-29T22:59:31.867Z,18.07
2017-08-29T23:01:58.302Z,18.09
2017-08-29T23:04:24.736Z,17.99
2017-08-29T23:06:51.127Z,17.84
2017-08-29T23:09:17.563Z,17.93
2017-08-29T23:11:44.042Z,18.06
2017-08-29T23:14:10.476Z,18.16
2017-08-29T23:16:37.627Z,18.24
2017-08-29T23:19:04.062Z,18.27
2017-08-29T23:21:30.496Z,18.26
2017-08-29T23:23:56.886Z,18.26
2017-08-29T23:26:23.366Z,18.25
2017-08-29T23:28:49.804Z,18.21
2017-08-29T23:31:16.238Z,18.17
2017-08-29T23:33:43.490Z,18.09
2017-08-29T23:36:09.926Z,18.05
2017-08-29T23:38:36.360Z,18.04
2017-08-29T23:41:02.796Z,17.98
2017-08-29T23:43:29.196Z,17.97
2017-08-29T23:45:55.666Z,17.80
2017-08-29T23:48:22.101Z,17.86
2017-08-29T23:50:49.353Z,17.91
2017-08-29T23:53:15.791Z,17.84
2017-08-29T23:55:42.224Z,17.96
2017-08-29T23:58:08.661Z,17.94
